Glen Allan, Mississippi
Current Conditions -  °F | °C
As of 10:53 AM on Wednesday 26 Nov 2014 (Local Time) from KGLH Reporting Station
Clear Clear  
Wind Chill: 57°   Ceiling: Unl
Heat Index: 57°   Visibility: 10mi
Dew Point: 35°   Wind: 20mph
Humidity: 44%   Direction: 200°SSW
Pressure: 30.08"   Gusts: NA
Location:  33.02°N, 91.03°W
Report Text: KGLH 261653Z AUTO 20017KT 10SM CLR 14/02 A3008 RMK AO2 SLP194 T01390017
Loading
Personal Weather Stations






























Interactive Weather Map New forecast layout! Learn more

10-Day Weather Forecast

Advertisements
Track Severe Weather on mobile